Airfield :
LOGIN :

Register | Disclaimer

   EN    FR    IT 

 










Legend :    VFR   Marginal VFR   IFR   Intensive IFR   Very Intensive IFR
Visi :
Ceiling :
>= 8 km
>= 3000ft
5 to 8 km
1000 to 3000 ft
1500m to 5 km
500 to 1000 ft
800 to 1500m
200 to 500 ft
< 800m
< 200 ft
Symbols :   Thunderstorms  Fog  Heavy snow  Heavy precipitations  Wind > 20 kt
SIGMETs :     Misc.  Thunderstorms  Icing  Turbulence  Mountain Waves  Volcanic Ashes






- Airport Elevation : 242 ft
- IATA code : DUB


EIDW - Dublin

CURRENT METAR :
  • 211400Z 07007KT 030V110 9999 FEW028 SCT250 15/06 Q1032 NOSIG

EXPIRED METARs :
  • 211330Z 11008KT 070V150 9999 FEW028 SCT250 15/07 Q1032 NOSIG
  • 211300Z VRB03KT 9999 FEW028 15/06 Q1032 NOSIG
  • 211230Z VRB03KT 9999 FEW028 14/06 Q1032 NOSIG
  • 211200Z 05007KT 320V110 9999 FEW028 SCT250 14/05 Q1032 NOSIG
  • 211130Z 07005KT 010V160 9999 FEW035 14/06 Q1032 NOSIG
  • 211100Z 10005KT 060V140 9999 FEW035 14/05 Q1032 NOSIG
  • 211030Z VRB03KT 9999 FEW045 14/05 Q1032 NOSIG
  • 211000Z VRB02KT 9999 FEW040 14/05 Q1032 NOSIG
  • 210930Z 07005KT 010V140 CAVOK 13/05 Q1032 NOSIG

TAF AMD TAF EIDW
Valid from the 21 at 12:00 until the 22 at 12:00 UTC


211248Z 2112/2212 VRB03KT 9999 FEW035
BECMG 2113/2115 08007KT
BECMG 2117/2119 13006KT
BECMG 2122/2124 VRB03KT
BECMG 2203/2205 32009KT
PROB30
TEMPO 2204/2207 4000 BR BKN005
PROB30
TEMPO 2207/2209 BKN012



MET'MAP, your aeronautical weather chart ! - Copyright ORBIFLY December 2007 - Disclaimer

ORBIFLY MET'MAP TEAM :

Programming & Development : Alexandra Zaïnal
Original concept : Baudouin d'Aumeries
Technical & hardware support : Manuel Goepfert
Assistance : Marc-Olivier Méhu




SOURCES & CREDITS :

   NOAA